sensor_id;sensor_type;location;lat;lon;timestamp;pressure;altitude;pressure_sealevel;temperature;humidity
68301;BME280;55146;47.468;18.806;2024-01-15T00:02:21;98873.13;;;-1.73;88.67
68301;BME280;55146;47.468;18.806;2024-01-15T00:04:47;98877.94;;;-1.75;88.58
68301;BME280;55146;47.468;18.806;2024-01-15T00:07:12;98867.53;;;-1.71;88.91
68301;BME280;55146;47.468;18.806;2024-01-15T00:09:37;98860.66;;;-1.67;88.87
68301;BME280;55146;47.468;18.806;2024-01-15T00:12:03;98850.22;;;-1.64;88.57
68301;BME280;55146;47.468;18.806;2024-01-15T00:14:28;98843.72;;;-1.56;88.22
68301;BME280;55146;47.468;18.806;2024-01-15T00:16:54;98830.44;;;-1.57;88.26
68301;BME280;55146;47.468;18.806;2024-01-15T00:19:21;98820.81;;;-1.65;88.33
68301;BME280;55146;47.468;18.806;2024-01-15T00:21:46;98816.16;;;-1.58;88.94
68301;BME280;55146;47.468;18.806;2024-01-15T00:24:12;98817.94;;;-1.52;89.12
68301;BME280;55146;47.468;18.806;2024-01-15T00:26:37;98810.44;;;-1.50;88.60
68301;BME280;55146;47.468;18.806;2024-01-15T00:29:03;98801.44;;;-1.44;88.37
68301;BME280;55146;47.468;18.806;2024-01-15T00:31:28;98792.06;;;-1.41;88.46
68301;BME280;55146;47.468;18.806;2024-01-15T00:33:55;98782.91;;;-1.40;88.29
68301;BME280;55146;47.468;18.806;2024-01-15T00:36:20;98797.19;;;-1.51;88.72
68301;BME280;55146;47.468;18.806;2024-01-15T00:38:45;98800.94;;;-1.52;88.57
68301;BME280;55146;47.468;18.806;2024-01-15T00:41:12;98792.56;;;-1.62;89.17
68301;BME280;55146;47.468;18.806;2024-01-15T00:43:38;98786.16;;;-1.61;89.34
68301;BME280;55146;47.468;18.806;2024-01-15T00:46:04;98775.50;;;-1.56;89.35
68301;BME280;55146;47.468;18.806;2024-01-15T00:48:29;98782.66;;;-1.50;89.20
68301;BME280;55146;47.468;18.806;2024-01-15T00:50:55;98783.72;;;-1.51;89.14
68301;BME280;55146;47.468;18.806;2024-01-15T00:53:20;98786.06;;;-1.55;89.38
68301;BME280;55146;47.468;18.806;2024-01-15T00:55:47;98783.72;;;-1.51;89.43
68301;BME280;55146;47.468;18.806;2024-01-15T00:58:13;98781.31;;;-1.59;89.10
68301;BME280;55146;47.468;18.806;2024-01-15T01:00:38;98781.66;;;-1.68;89.26
68301;BME280;55146;47.468;18.806;2024-01-15T01:03:04;98780.22;;;-1.70;89.59
68301;BME280;55146;47.468;18.806;2024-01-15T01:05:29;98782.66;;;-1.80;89.73
68301;BME280;55146;47.468;18.806;2024-01-15T01:07:54;98776.59;;;-1.76;90.06
68301;BME280;55146;47.468;18.806;2024-01-15T01:10:20;98775.88;;;-1.71;89.95
68301;BME280;55146;47.468;18.806;2024-01-15T01:12:45;98780.22;;;-1.70;89.85
68301;BME280;55146;47.468;18.806;2024-01-15T01:15:10;98779.63;;;-1.72;89.95
68301;BME280;55146;47.468;18.806;2024-01-15T01:17:36;98779.19;;;-1.69;89.88
68301;BME280;55146;47.468;18.806;2024-01-15T01:20:01;98773.81;;;-1.69;89.66
68301;BME280;55146;47.468;18.806;2024-01-15T01:22:29;98763.31;;;-1.77;90.08
68301;BME280;55146;47.468;18.806;2024-01-15T01:24:55;98761.25;;;-1.75;90.41
68301;BME280;55146;47.468;18.806;2024-01-15T01:27:20;98750.59;;;-1.70;90.14
68301;BME280;55146;47.468;18.806;2024-01-15T01:29:45;98752.22;;;-1.69;90.32
68301;BME280;55146;47.468;18.806;2024-01-15T01:32:11;98746.38;;;-1.66;90.56
68301;BME280;55146;47.468;18.806;2024-01-15T01:34:40;98743.69;;;-1.66;90.29
68301;BME280;55146;47.468;18.806;2024-01-15T01:37:09;98736.66;;;-1.67;89.86
68301;BME280;55146;47.468;18.806;2024-01-15T01:39:37;98735.25;;;-1.70;90.02
68301;BME280;55146;47.468;18.806;2024-01-15T01:42:03;98730.06;;;-1.71;89.85
68301;BME280;55146;47.468;18.806;2024-01-15T01:44:28;98725.72;;;-1.72;89.72
68301;BME280;55146;47.468;18.806;2024-01-15T01:46:53;98716.25;;;-1.75;89.62
68301;BME280;55146;47.468;18.806;2024-01-15T01:49:19;98714.13;;;-1.73;89.58
68301;BME280;55146;47.468;18.806;2024-01-15T01:51:45;98708.47;;;-1.83;89.43
68301;BME280;55146;47.468;18.806;2024-01-15T01:54:11;98715.16;;;-1.85;89.32
68301;BME280;55146;47.468;18.806;2024-01-15T01:56:39;98708.44;;;-1.94;89.82
68301;BME280;55146;47.468;18.806;2024-01-15T01:59:05;98697.00;;;-2.08;89.79
68301;BME280;55146;47.468;18.806;2024-01-15T02:01:32;98693.13;;;-2.12;90.54
68301;BME280;55146;47.468;18.806;2024-01-15T02:03:57;98686.72;;;-2.11;90.64
68301;BME280;55146;47.468;18.806;2024-01-15T02:06:23;98683.41;;;-2.13;90.51
68301;BME280;55146;47.468;18.806;2024-01-15T02:08:49;98692.09;;;-2.11;90.57
68301;BME280;55146;47.468;18.806;2024-01-15T02:11:14;98697.53;;;-1.99;90.41
68301;BME280;55146;47.468;18.806;2024-01-15T02:13:40;98691.09;;;-1.98;90.46
68301;BME280;55146;47.468;18.806;2024-01-15T02:16:05;98708.53;;;-2.01;90.88
68301;BME280;55146;47.468;18.806;2024-01-15T02:18:41;98699.19;;;-1.98;90.83
68301;BME280;55146;47.468;18.806;2024-01-15T02:21:07;98700.91;;;-2.04;90.93
68301;BME280;55146;47.468;18.806;2024-01-15T02:23:32;98686.94;;;-2.13;91.38
68301;BME280;55146;47.468;18.806;2024-01-15T02:25:58;98682.22;;;-2.17;91.58
68301;BME280;55146;47.468;18.806;2024-01-15T02:28:23;98679.75;;;-2.19;91.41
68301;BME280;55146;47.468;18.806;2024-01-15T02:30:48;98673.75;;;-2.21;91.52
68301;BME280;55146;47.468;18.806;2024-01-15T02:33:14;98662.03;;;-2.26;91.46
68301;BME280;55146;47.468;18.806;2024-01-15T02:35:39;98676.47;;;-2.21;91.35
68301;BME280;55146;47.468;18.806;2024-01-15T02:38:06;98670.62;;;-2.18;91.18
68301;BME280;55146;47.468;18.806;2024-01-15T02:40:32;98667.81;;;-2.23;90.87
68301;BME280;55146;47.468;18.806;2024-01-15T02:42:58;98651.47;;;-2.28;90.75
68301;BME280;55146;47.468;18.806;2024-01-15T02:45:23;98661.34;;;-2.22;91.11
68301;BME280;55146;47.468;18.806;2024-01-15T02:47:49;98685.75;;;-2.17;90.93
68301;BME280;55146;47.468;18.806;2024-01-15T02:50:15;98685.00;;;-2.24;90.03
68301;BME280;55146;47.468;18.806;2024-01-15T02:52:41;98688.00;;;-2.32;90.08
68301;BME280;55146;47.468;18.806;2024-01-15T02:55:07;98669.84;;;-2.36;90.46
68301;BME280;55146;47.468;18.806;2024-01-15T02:57:32;98679.88;;;-2.43;90.80
68301;BME280;55146;47.468;18.806;2024-01-15T02:59:58;98668.81;;;-2.54;90.50
68301;BME280;55146;47.468;18.806;2024-01-15T03:02:24;98657.81;;;-2.52;90.69
68301;BME280;55146;47.468;18.806;2024-01-15T03:04:49;98654.47;;;-2.66;90.17
68301;BME280;55146;47.468;18.806;2024-01-15T03:07:15;98651.19;;;-2.68;90.11
68301;BME280;55146;47.468;18.806;2024-01-15T03:09:41;98653.94;;;-2.74;90.06
68301;BME280;55146;47.468;18.806;2024-01-15T03:12:06;98644.97;;;-2.68;90.24
68301;BME280;55146;47.468;18.806;2024-01-15T03:14:32;98643.41;;;-2.76;89.15
68301;BME280;55146;47.468;18.806;2024-01-15T03:16:57;98637.78;;;-2.74;89.53
68301;BME280;55146;47.468;18.806;2024-01-15T03:19:22;98618.81;;;-2.79;89.48
68301;BME280;55146;47.468;18.806;2024-01-15T03:21:48;98618.00;;;-2.80;89.61
68301;BME280;55146;47.468;18.806;2024-01-15T03:24:13;98621.03;;;-2.76;89.98
68301;BME280;55146;47.468;18.806;2024-01-15T03:26:39;98619.41;;;-2.77;89.85
68301;BME280;55146;47.468;18.806;2024-01-15T03:29:04;98625.38;;;-2.75;89.69
68301;BME280;55146;47.468;18.806;2024-01-15T03:31:30;98648.03;;;-2.65;90.60
68301;BME280;55146;47.468;18.806;2024-01-15T03:33:55;98634.13;;;-2.62;90.30
68301;BME280;55146;47.468;18.806;2024-01-15T03:36:21;98641.38;;;-2.62;90.18
68301;BME280;55146;47.468;18.806;2024-01-15T03:38:46;98622.97;;;-2.65;90.03
68301;BME280;55146;47.468;18.806;2024-01-15T03:41:12;98623.78;;;-2.65;90.49
68301;BME280;55146;47.468;18.806;2024-01-15T03:43:37;98649.72;;;-2.52;90.28
68301;BME280;55146;47.468;18.806;2024-01-15T03:46:03;98641.81;;;-2.47;90.46
68301;BME280;55146;47.468;18.806;2024-01-15T03:48:29;98651.75;;;-2.48;89.93
68301;BME280;55146;47.468;18.806;2024-01-15T03:50:55;98648.62;;;-2.63;88.87
68301;BME280;55146;47.468;18.806;2024-01-15T03:53:20;98646.84;;;-2.69;89.09
68301;BME280;55146;47.468;18.806;2024-01-15T03:55:46;98663.19;;;-2.70;89.18
68301;BME280;55146;47.468;18.806;2024-01-15T03:58:11;98673.59;;;-2.74;89.22
68301;BME280;55146;47.468;18.806;2024-01-15T04:00:36;98654.22;;;-2.82;88.59
68301;BME280;55146;47.468;18.806;2024-01-15T04:03:02;98636.06;;;-2.87;88.89
68301;BME280;55146;47.468;18.806;2024-01-15T04:05:27;98629.72;;;-2.93;88.92
68301;BME280;55146;47.468;18.806;2024-01-15T04:07:52;98634.72;;;-2.96;89.04
68301;BME280;55146;47.468;18.806;2024-01-15T04:10:18;98628.06;;;-2.94;89.03
68301;BME280;55146;47.468;18.806;2024-01-15T04:12:43;98618.00;;;-3.16;88.35
68301;BME280;55146;47.468;18.806;2024-01-15T04:15:11;98619.84;;;-3.17;89.86
68301;BME280;55146;47.468;18.806;2024-01-15T04:17:37;98613.81;;;-3.12;89.93
68301;BME280;55146;47.468;18.806;2024-01-15T04:20:03;98627.09;;;-2.99;89.99
68301;BME280;55146;47.468;18.806;2024-01-15T04:22:28;98629.66;;;-3.04;89.36
68301;BME280;55146;47.468;18.806;2024-01-15T04:24:54;98632.69;;;-3.01;89.26
68301;BME280;55146;47.468;18.806;2024-01-15T04:27:19;98629.56;;;-3.16;89.00
68301;BME280;55146;47.468;18.806;2024-01-15T04:29:44;98618.28;;;-3.24;89.08
68301;BME280;55146;47.468;18.806;2024-01-15T04:32:10;98620.00;;;-3.30;89.96
68301;BME280;55146;47.468;18.806;2024-01-15T04:34:35;98613.78;;;-3.31;89.44
68301;BME280;55146;47.468;18.806;2024-01-15T04:37:00;98618.34;;;-3.31;89.54
68301;BME280;55146;47.468;18.806;2024-01-15T04:39:26;98620.03;;;-3.37;89.33
68301;BME280;55146;47.468;18.806;2024-01-15T04:41:51;98609.09;;;-3.35;89.36
68301;BME280;55146;47.468;18.806;2024-01-15T04:44:16;98599.00;;;-3.40;88.91
68301;BME280;55146;47.468;18.806;2024-01-15T04:46:42;98607.66;;;-3.38;89.21
68301;BME280;55146;47.468;18.806;2024-01-15T04:49:08;98617.88;;;-3.46;88.98
68301;BME280;55146;47.468;18.806;2024-01-15T04:51:34;98609.88;;;-3.53;88.97
68301;BME280;55146;47.468;18.806;2024-01-15T04:54:00;98600.00;;;-3.59;89.11
68301;BME280;55146;47.468;18.806;2024-01-15T04:56:25;98608.00;;;-3.52;89.09
68301;BME280;55146;47.468;18.806;2024-01-15T04:58:50;98611.34;;;-3.57;88.87
68301;BME280;55146;47.468;18.806;2024-01-15T05:01:17;98611.34;;;-3.57;89.07
68301;BME280;55146;47.468;18.806;2024-01-15T05:03:42;98618.00;;;-3.59;88.99
68301;BME280;55146;47.468;18.806;2024-01-15T05:06:08;98629.56;;;-3.59;89.27
68301;BME280;55146;47.468;18.806;2024-01-15T05:08:33;98625.00;;;-3.58;89.11
68301;BME280;55146;47.468;18.806;2024-01-15T05:10:58;98622.75;;;-3.61;88.99
68301;BME280;55146;47.468;18.806;2024-01-15T05:13:24;98630.34;;;-3.77;89.15
68301;BME280;55146;47.468;18.806;2024-01-15T05:15:49;98634.25;;;-3.79;89.43
68301;BME280;55146;47.468;18.806;2024-01-15T05:18:15;98630.75;;;-3.80;90.08
68301;BME280;55146;47.468;18.806;2024-01-15T05:20:40;98625.75;;;-3.76;90.36
68301;BME280;55146;47.468;18.806;2024-01-15T05:23:06;98613.41;;;-3.77;90.18
68301;BME280;55146;47.468;18.806;2024-01-15T05:25:31;98622.69;;;-3.80;90.13
68301;BME280;55146;47.468;18.806;2024-01-15T05:27:56;98625.00;;;-3.83;90.51
68301;BME280;55146;47.468;18.806;2024-01-15T05:30:22;98628.91;;;-3.79;90.31
68301;BME280;55146;47.468;18.806;2024-01-15T05:32:47;98627.66;;;-3.77;89.89
68301;BME280;55146;47.468;18.806;2024-01-15T05:35:12;98622.13;;;-3.88;89.81
68301;BME280;55146;47.468;18.806;2024-01-15T05:37:43;98631.06;;;-3.94;90.55
68301;BME280;55146;47.468;18.806;2024-01-15T05:40:09;98631.25;;;-3.89;91.43
68301;BME280;55146;47.468;18.806;2024-01-15T05:42:34;98637.66;;;-3.90;91.87
68301;BME280;55146;47.468;18.806;2024-01-15T05:45:00;98645.37;;;-3.76;91.95
68301;BME280;55146;47.468;18.806;2024-01-15T05:47:27;98641.88;;;-3.76;91.68
68301;BME280;55146;47.468;18.806;2024-01-15T05:49:52;98638.00;;;-3.80;91.33
68301;BME280;55146;47.468;18.806;2024-01-15T05:52:17;98638.19;;;-3.82;91.46
68301;BME280;55146;47.468;18.806;2024-01-15T05:54:43;98619.25;;;-3.87;91.64
68301;BME280;55146;47.468;18.806;2024-01-15T05:57:08;98629.41;;;-3.89;92.09
68301;BME280;55146;47.468;18.806;2024-01-15T05:59:33;98619.06;;;-3.92;92.17
68301;BME280;55146;47.468;18.806;2024-01-15T06:02:01;98614.94;;;-3.94;92.94
68301;BME280;55146;47.468;18.806;2024-01-15T06:04:26;98615.34;;;-3.91;92.95
68301;BME280;55146;47.468;18.806;2024-01-15T06:06:52;98615.72;;;-3.87;93.39
68301;BME280;55146;47.468;18.806;2024-01-15T06:09:17;98621.09;;;-3.87;94.05
68301;BME280;55146;47.468;18.806;2024-01-15T06:11:42;98613.87;;;-3.87;94.31
68301;BME280;55146;47.468;18.806;2024-01-15T06:14:08;98627.75;;;-3.90;93.97
68301;BME280;55146;47.468;18.806;2024-01-15T06:16:33;98628.56;;;-3.89;93.93
68301;BME280;55146;47.468;18.806;2024-01-15T06:18:59;98614.06;;;-3.88;93.48
68301;BME280;55146;47.468;18.806;2024-01-15T06:21:24;98630.72;;;-4.04;93.06
68301;BME280;55146;47.468;18.806;2024-01-15T06:23:49;98622.06;;;-4.07;94.42
68301;BME280;55146;47.468;18.806;2024-01-15T06:26:15;98624.69;;;-4.00;94.11
68301;BME280;55146;47.468;18.806;2024-01-15T06:28:40;98642.63;;;-3.94;93.95
68301;BME280;55146;47.468;18.806;2024-01-15T06:31:06;98647.38;;;-3.89;93.53
68301;BME280;55146;47.468;18.806;2024-01-15T06:33:32;98633.69;;;-3.88;93.07
68301;BME280;55146;47.468;18.806;2024-01-15T06:35:58;98642.22;;;-3.91;92.69
68301;BME280;55146;47.468;18.806;2024-01-15T06:38:23;98643.84;;;-3.90;92.78
68301;BME280;55146;47.468;18.806;2024-01-15T06:40:50;98648.56;;;-3.85;92.73
68301;BME280;55146;47.468;18.806;2024-01-15T06:43:17;98645.63;;;-3.77;92.71
68301;BME280;55146;47.468;18.806;2024-01-15T06:45:45;98649.88;;;-3.70;92.33
68301;BME280;55146;47.468;18.806;2024-01-15T06:48:10;98649.66;;;-3.68;91.71
68301;BME280;55146;47.468;18.806;2024-01-15T06:50:39;98650.53;;;-3.74;91.18
68301;BME280;55146;47.468;18.806;2024-01-15T06:53:05;98648.91;;;-3.75;91.40
68301;BME280;55146;47.468;18.806;2024-01-15T06:55:30;98646.09;;;-3.62;91.28
68301;BME280;55146;47.468;18.806;2024-01-15T06:57:56;98648.03;;;-3.69;90.66
68301;BME280;55146;47.468;18.806;2024-01-15T07:00:21;98640.25;;;-3.77;90.56
68301;BME280;55146;47.468;18.806;2024-01-15T07:02:46;98638.75;;;-3.73;91.10
68301;BME280;55146;47.468;18.806;2024-01-15T07:05:12;98651.75;;;-3.70;91.20
68301;BME280;55146;47.468;18.806;2024-01-15T07:07:37;98655.59;;;-3.59;90.92
68301;BME280;55146;47.468;18.806;2024-01-15T07:10:03;98648.62;;;-3.42;91.48
68301;BME280;55146;47.468;18.806;2024-01-15T07:12:29;98646.25;;;-3.32;91.33
68301;BME280;55146;47.468;18.806;2024-01-15T07:14:56;98650.09;;;-3.21;90.61
68301;BME280;55146;47.468;18.806;2024-01-15T07:17:21;98646.91;;;-3.12;89.68
68301;BME280;55146;47.468;18.806;2024-01-15T07:19:46;98651.31;;;-2.99;89.27
68301;BME280;55146;47.468;18.806;2024-01-15T07:22:12;98655.72;;;-3.05;89.24
68301;BME280;55146;47.468;18.806;2024-01-15T07:24:37;98663.84;;;-3.11;88.86
68301;BME280;55146;47.468;18.806;2024-01-15T07:27:03;98671.69;;;-3.10;89.15
68301;BME280;55146;47.468;18.806;2024-01-15T07:29:30;98666.97;;;-3.14;88.94
68301;BME280;55146;47.468;18.806;2024-01-15T07:31:55;98669.06;;;-3.16;89.31
68301;BME280;55146;47.468;18.806;2024-01-15T07:34:21;98675.84;;;-3.14;89.46
68301;BME280;55146;47.468;18.806;2024-01-15T07:36:47;98679.53;;;-3.08;89.74
68301;BME280;55146;47.468;18.806;2024-01-15T07:39:12;98679.78;;;-3.10;89.24
68301;BME280;55146;47.468;18.806;2024-01-15T07:41:39;98679.78;;;-3.10;89.07
68301;BME280;55146;47.468;18.806;2024-01-15T07:44:05;98688.25;;;-3.13;89.68
68301;BME280;55146;47.468;18.806;2024-01-15T07:46:30;98691.69;;;-3.24;89.01
68301;BME280;55146;47.468;18.806;2024-01-15T07:48:56;98680.38;;;-3.33;89.96
68301;BME280;55146;47.468;18.806;2024-01-15T07:51:23;98679.41;;;-3.38;89.97
68301;BME280;55146;47.468;18.806;2024-01-15T07:53:49;98679.72;;;-3.28;90.32
68301;BME280;55146;47.468;18.806;2024-01-15T07:56:14;98679.06;;;-3.23;89.72
68301;BME280;55146;47.468;18.806;2024-01-15T07:58:40;98680.94;;;-3.24;89.85
68301;BME280;55146;47.468;18.806;2024-01-15T08:01:05;98677.00;;;-3.21;89.61
68301;BME280;55146;47.468;18.806;2024-01-15T08:03:31;98683.22;;;-3.03;89.81
68301;BME280;55146;47.468;18.806;2024-01-15T08:05:57;98670.75;;;-2.79;88.82
68301;BME280;55146;47.468;18.806;2024-01-15T08:08:24;98683.37;;;-2.61;87.30
68301;BME280;55146;47.468;18.806;2024-01-15T08:10:50;98678.22;;;-2.45;88.11
68301;BME280;55146;47.468;18.806;2024-01-15T08:13:15;98688.59;;;-2.30;87.35
68301;BME280;55146;47.468;18.806;2024-01-15T08:15:41;98689.53;;;-2.06;86.68
68301;BME280;55146;47.468;18.806;2024-01-15T08:18:06;98677.75;;;-1.93;85.83
68301;BME280;55146;47.468;18.806;2024-01-15T08:20:32;98682.34;;;-1.82;86.10
68301;BME280;55146;47.468;18.806;2024-01-15T08:22:57;98678.03;;;-1.72;86.35
68301;BME280;55146;47.468;18.806;2024-01-15T08:25:22;98681.84;;;-1.61;86.05
68301;BME280;55146;47.468;18.806;2024-01-15T08:27:48;98687.69;;;-1.52;86.00
68301;BME280;55146;47.468;18.806;2024-01-15T08:30:13;98693.22;;;-1.47;86.91
68301;BME280;55146;47.468;18.806;2024-01-15T08:32:39;98687.38;;;-1.33;86.62
68301;BME280;55146;47.468;18.806;2024-01-15T08:35:08;98681.78;;;-1.19;86.29
68301;BME280;55146;47.468;18.806;2024-01-15T08:37:34;98672.41;;;-1.05;86.45
68301;BME280;55146;47.468;18.806;2024-01-15T08:39:59;98681.19;;;-0.87;86.18
68301;BME280;55146;47.468;18.806;2024-01-15T08:42:25;98680.13;;;-0.62;85.24
68301;BME280;55146;47.468;18.806;2024-01-15T08:44:50;98668.47;;;-0.51;84.77
68301;BME280;55146;47.468;18.806;2024-01-15T08:47:16;98668.53;;;-0.34;85.02
68301;BME280;55146;47.468;18.806;2024-01-15T08:49:42;98669.19;;;-0.16;84.93
68301;BME280;55146;47.468;18.806;2024-01-15T08:52:08;98669.34;;;0.06;84.23
68301;BME280;55146;47.468;18.806;2024-01-15T08:54:34;98672.41;;;0.26;84.16
68301;BME280;55146;47.468;18.806;2024-01-15T08:56:59;98670.66;;;0.49;84.24
68301;BME280;55146;47.468;18.806;2024-01-15T08:59:25;98675.41;;;0.58;83.68
68301;BME280;55146;47.468;18.806;2024-01-15T09:01:52;98678.53;;;0.67;84.24
68301;BME280;55146;47.468;18.806;2024-01-15T09:04:17;98677.78;;;0.88;83.66
68301;BME280;55146;47.468;18.806;2024-01-15T09:06:45;98671.88;;;1.08;83.94
68301;BME280;55146;47.468;18.806;2024-01-15T09:09:12;98677.59;;;1.28;83.35
68301;BME280;55146;47.468;18.806;2024-01-15T09:11:38;98675.94;;;1.49;82.61
68301;BME280;55146;47.468;18.806;2024-01-15T09:14:04;98671.38;;;1.71;81.59
68301;BME280;55146;47.468;18.806;2024-01-15T09:16:29;98648.59;;;1.94;81.78
68301;BME280;55146;47.468;18.806;2024-01-15T09:18:54;98663.00;;;2.21;80.52
68301;BME280;55146;47.468;18.806;2024-01-15T09:21:22;98655.38;;;2.45;79.30
68301;BME280;55146;47.468;18.806;2024-01-15T09:23:50;98650.38;;;2.64;76.85
68301;BME280;55146;47.468;18.806;2024-01-15T09:26:15;98653.78;;;2.81;76.68
68301;BME280;55146;47.468;18.806;2024-01-15T09:28:40;98636.50;;;2.97;76.37
68301;BME280;55146;47.468;18.806;2024-01-15T09:31:06;98650.78;;;3.19;76.09
68301;BME280;55146;47.468;18.806;2024-01-15T09:33:31;98640.59;;;3.42;75.51
68301;BME280;55146;47.468;18.806;2024-01-15T09:35:56;98634.72;;;3.65;76.00
68301;BME280;55146;47.468;18.806;2024-01-15T09:38:22;98628.56;;;3.90;75.57
68301;BME280;55146;47.468;18.806;2024-01-15T09:40:49;98640.31;;;4.16;74.22
68301;BME280;55146;47.468;18.806;2024-01-15T09:43:16;98634.38;;;4.34;72.80
68301;BME280;55146;47.468;18.806;2024-01-15T09:45:42;98627.06;;;4.50;71.21
68301;BME280;55146;47.468;18.806;2024-01-15T09:48:08;98620.25;;;4.72;69.87
68301;BME280;55146;47.468;18.806;2024-01-15T09:50:34;98620.25;;;4.93;69.42
68301;BME280;55146;47.468;18.806;2024-01-15T09:53:00;98609.88;;;5.05;65.54
68301;BME280;55146;47.468;18.806;2024-01-15T09:55:26;98609.84;;;5.15;66.27
68301;BME280;55146;47.468;18.806;2024-01-15T09:57:52;98608.97;;;5.40;63.19
68301;BME280;55146;47.468;18.806;2024-01-15T10:00:20;98595.88;;;5.42;63.98
68301;BME280;55146;47.468;18.806;2024-01-15T10:02:45;98592.81;;;5.58;63.97
68301;BME280;55146;47.468;18.806;2024-01-15T10:05:11;98584.94;;;5.52;62.99
68301;BME280;55146;47.468;18.806;2024-01-15T10:07:37;98571.75;;;5.69;62.88
68301;BME280;55146;47.468;18.806;2024-01-15T10:10:03;98570.59;;;5.90;62.03
68301;BME280;55146;47.468;18.806;2024-01-15T10:12:29;98566.63;;;6.12;60.64
68301;BME280;55146;47.468;18.806;2024-01-15T10:14:56;98553.75;;;6.22;60.71
68301;BME280;55146;47.468;18.806;2024-01-15T10:17:21;98565.69;;;6.31;57.37
68301;BME280;55146;47.468;18.806;2024-01-15T10:19:47;98562.13;;;6.31;56.73
68301;BME280;55146;47.468;18.806;2024-01-15T10:22:14;98557.50;;;6.31;57.69
68301;BME280;55146;47.468;18.806;2024-01-15T10:24:40;98554.72;;;6.36;56.26
68301;BME280;55146;47.468;18.806;2024-01-15T10:27:07;98551.38;;;6.44;57.91
68301;BME280;55146;47.468;18.806;2024-01-15T10:29:33;98557.56;;;6.60;55.96
68301;BME280;55146;47.468;18.806;2024-01-15T10:31:59;98559.97;;;6.62;57.98
68301;BME280;55146;47.468;18.806;2024-01-15T10:34:24;98566.72;;;6.40;56.65
68301;BME280;55146;47.468;18.806;2024-01-15T10:36:50;98562.75;;;6.57;56.90
68301;BME280;55146;47.468;18.806;2024-01-15T10:39:21;98559.59;;;6.73;55.76
68301;BME280;55146;47.468;18.806;2024-01-15T10:41:46;98556.97;;;6.92;56.92
68301;BME280;55146;47.468;18.806;2024-01-15T10:44:11;98540.88;;;6.90;55.38
68301;BME280;55146;47.468;18.806;2024-01-15T10:46:37;98544.06;;;6.98;53.59
68301;BME280;55146;47.468;18.806;2024-01-15T10:49:03;98533.50;;;6.86;53.68
68301;BME280;55146;47.468;18.806;2024-01-15T10:51:29;98531.78;;;6.95;53.76
68301;BME280;55146;47.468;18.806;2024-01-15T10:53:56;98531.50;;;6.68;53.48
68301;BME280;55146;47.468;18.806;2024-01-15T10:56:22;98539.53;;;5.76;54.47
68301;BME280;55146;47.468;18.806;2024-01-15T10:58:49;98544.38;;;5.94;54.85
68301;BME280;55146;47.468;18.806;2024-01-15T11:01:15;98553.41;;;5.90;54.89
68301;BME280;55146;47.468;18.806;2024-01-15T11:03:42;98550.53;;;5.61;54.96
68301;BME280;55146;47.468;18.806;2024-01-15T11:06:27;98545.47;;;5.93;55.56
68301;BME280;55146;47.468;18.806;2024-01-15T11:08:54;98545.34;;;6.14;55.01
68301;BME280;55146;47.468;18.806;2024-01-15T11:11:23;98534.28;;;6.34;54.19
68301;BME280;55146;47.468;18.806;2024-01-15T11:13:48;98541.91;;;6.32;54.02
68301;BME280;55146;47.468;18.806;2024-01-15T11:16:17;98530.69;;;6.67;54.41
68301;BME280;55146;47.468;18.806;2024-01-15T11:19:00;98539.69;;;6.39;54.29
68301;BME280;55146;47.468;18.806;2024-01-15T11:21:27;98545.87;;;6.16;53.94
68301;BME280;55146;47.468;18.806;2024-01-15T11:23:57;98543.75;;;6.75;53.43
68301;BME280;55146;47.468;18.806;2024-01-15T11:26:30;98541.56;;;6.43;52.87
68301;BME280;55146;47.468;18.806;2024-01-15T11:28:57;98543.56;;;6.33;53.20
68301;BME280;55146;47.468;18.806;2024-01-15T11:31:56;98541.03;;;6.41;53.81
68301;BME280;55146;47.468;18.806;2024-01-15T11:34:15;98531.31;;;6.59;52.98
68301;BME280;55146;47.468;18.806;2024-01-15T11:41:56;98525.22;;;6.96;53.62
68301;BME280;55146;47.468;18.806;2024-01-15T11:44:22;98521.00;;;7.09;52.36
68301;BME280;55146;47.468;18.806;2024-01-15T11:47:08;98505.00;;;6.68;52.42
68301;BME280;55146;47.468;18.806;2024-01-15T11:50:00;98504.19;;;6.97;53.17
68301;BME280;55146;47.468;18.806;2024-01-15T11:52:39;98505.97;;;7.06;52.40
68301;BME280;55146;47.468;18.806;2024-01-15T11:55:33;98512.25;;;7.30;52.33
68301;BME280;55146;47.468;18.806;2024-01-15T11:58:00;98503.44;;;7.57;50.30
68301;BME280;55146;47.468;18.806;2024-01-15T12:00:26;98506.38;;;7.61;50.16
68301;BME280;55146;47.468;18.806;2024-01-15T12:02:52;98490.88;;;7.75;49.57
68301;BME280;55146;47.468;18.806;2024-01-15T12:05:19;98485.97;;;7.72;50.74
68301;BME280;55146;47.468;18.806;2024-01-15T12:07:47;98474.59;;;7.65;49.75
68301;BME280;55146;47.468;18.806;2024-01-15T12:10:17;98471.19;;;7.73;49.26
68301;BME280;55146;47.468;18.806;2024-01-15T12:13:05;98467.41;;;7.88;51.26
68301;BME280;55146;47.468;18.806;2024-01-15T12:15:31;98458.91;;;7.89;49.29
68301;BME280;55146;47.468;18.806;2024-01-15T12:17:57;98466.97;;;7.81;49.82
68301;BME280;55146;47.468;18.806;2024-01-15T12:20:24;98463.25;;;7.71;50.19
68301;BME280;55146;47.468;18.806;2024-01-15T12:22:49;98477.19;;;7.56;50.13
68301;BME280;55146;47.468;18.806;2024-01-15T12:25:15;98472.97;;;7.45;49.26
68301;BME280;55146;47.468;18.806;2024-01-15T12:27:40;98452.47;;;7.43;50.48
68301;BME280;55146;47.468;18.806;2024-01-15T12:30:06;98443.44;;;7.42;49.84
68301;BME280;55146;47.468;18.806;2024-01-15T12:32:32;98451.28;;;7.49;50.68
68301;BME280;55146;47.468;18.806;2024-01-15T12:34:58;98454.25;;;7.52;50.31
68301;BME280;55146;47.468;18.806;2024-01-15T12:37:23;98452.00;;;7.36;50.37
68301;BME280;55146;47.468;18.806;2024-01-15T12:39:51;98445.09;;;7.62;50.22
68301;BME280;55146;47.468;18.806;2024-01-15T12:42:17;98441.25;;;7.63;50.64
68301;BME280;55146;47.468;18.806;2024-01-15T12:44:45;98444.50;;;7.65;50.04
68301;BME280;55146;47.468;18.806;2024-01-15T12:47:12;98448.91;;;7.61;50.40
68301;BME280;55146;47.468;18.806;2024-01-15T12:49:38;98444.06;;;7.58;50.21
68301;BME280;55146;47.468;18.806;2024-01-15T12:52:08;98434.50;;;7.55;50.46
68301;BME280;55146;47.468;18.806;2024-01-15T12:54:33;98432.38;;;7.52;50.03